Time;durP1;ratioP1;P1;durP2;ratioP2;P2;SDS_P1;SDS_P2;PMS_P1;PMS_P2;Temp;Humidity;BMP_temperature;BMP_pressure;BME280_temperature;BME280_humidity;BME280_pressure;Samples;Min_cycle;Max_cycle;Signal;HPM_P1;HPM_P2
2022/11/21 00:01:33;;;;;;;92.10;28.80;;;;;;;0.92;100.00;100571.88;105553;1270;62329;-69
2022/11/21 00:04:02;;;;;;;94.80;30.60;;;;;;;0.96;100.00;100576.88;105456;1273;69372;-69
2022/11/21 00:06:31;;;;;;;93.70;28.60;;;;;;;1.04;100.00;100574.20;105503;1275;69246;-69
2022/11/21 00:09:00;;;;;;;90.20;29.20;;;;;;;1.07;100.00;100564.16;105540;1275;71314;-67
2022/11/21 00:11:29;;;;;;;81.10;27.90;;;;;;;1.03;100.00;100557.95;105647;1272;60191;-70
2022/11/21 00:13:58;;;;;;;87.90;26.90;;;;;;;0.96;100.00;100562.46;105661;1275;57523;-68
2022/11/21 00:16:27;;;;;;;92.30;29.20;;;;;;;0.96;100.00;100551.17;105650;1275;73120;-69
2022/11/21 00:18:56;;;;;;;86.20;28.70;;;;;;;0.91;100.00;100552.55;105685;1265;71266;-69
2022/11/21 00:21:25;;;;;;;86.90;26.50;;;;;;;0.95;100.00;100555.67;105582;1272;59071;-69
2022/11/21 00:23:54;;;;;;;94.20;27.20;;;;;;;0.95;100.00;100554.62;105686;1267;70356;-69
2022/11/21 00:26:23;;;;;;;93.10;28.90;;;;;;;0.93;100.00;100561.73;105629;1268;61554;-70
2022/11/21 00:28:51;;;;;;;86.70;27.60;;;;;;;0.94;100.00;100564.98;105717;1267;61154;-70
2022/11/21 00:31:24;;;;;;;91.40;27.50;;;;;;;0.96;100.00;100568.83;105693;1266;73526;-70
2022/11/21 00:33:52;;;;;;;88.30;26.90;;;;;;;0.95;100.00;100574.70;105612;1270;71388;-69
2022/11/21 00:36:21;;;;;;;84.30;27.10;;;;;;;0.93;100.00;100579.55;105400;1272;68926;-69
2022/11/21 00:38:50;;;;;;;82.00;27.30;;;;;;;0.90;100.00;100574.01;105666;1267;62511;-72
2022/11/21 00:41:19;;;;;;;87.30;26.90;;;;;;;0.88;100.00;100567.73;105845;1271;60008;-74
2022/11/21 00:43:48;;;;;;;89.60;27.90;;;;;;;1.01;100.00;100562.45;105846;1272;59140;-69
2022/11/21 00:46:17;;;;;;;82.00;28.30;;;;;;;1.22;100.00;100560.52;105664;1270;73659;-70
2022/11/21 00:48:46;;;;;;;74.60;25.60;;;;;;;1.33;100.00;100556.71;105679;1267;72247;-69
2022/11/21 00:51:14;;;;;;;79.60;25.50;;;;;;;1.36;100.00;100563.64;105690;1275;71209;-72
2022/11/21 00:53:44;;;;;;;80.10;27.00;;;;;;;1.27;100.00;100568.59;105622;1266;73198;-68
2022/11/21 00:56:13;;;;;;;74.90;26.90;;;;;;;1.28;100.00;100564.77;105753;1270;62176;-69
2022/11/21 00:58:41;;;;;;;75.30;27.10;;;;;;;1.31;100.00;100563.61;105732;1270;59085;-69
2022/11/21 01:01:15;;;;;;;75.90;24.00;;;;;;;1.43;100.00;100572.65;105725;1277;74363;-71
2022/11/21 01:03:45;;;;;;;79.70;23.30;;;;;;;1.45;100.00;100575.48;105635;1267;72629;-72
2022/11/21 01:06:15;;;;;;;75.50;20.90;;;;;;;1.35;100.00;100577.57;105723;1267;70479;-72
2022/11/21 01:08:44;;;;;;;88.80;27.40;;;;;;;1.17;100.00;100581.83;105688;1270;73633;-71
2022/11/21 01:11:17;;;;;;;68.90;20.30;;;;;;;1.15;100.00;100583.08;105843;1274;60531;-72
2022/11/21 01:13:48;;;;;;;69.00;21.40;;;;;;;1.14;100.00;100578.67;105774;1269;60728;-69
2022/11/21 01:16:20;;;;;;;77.40;23.50;;;;;;;1.12;100.00;100577.86;105783;1270;63279;-69
2022/11/21 01:18:50;;;;;;;75.10;23.30;;;;;;;1.10;100.00;100575.88;105596;1268;63436;-73
2022/11/21 01:21:29;;;;;;;78.50;24.00;;;;;;;1.13;100.00;100576.31;105712;1275;59269;-70
2022/11/21 01:24:00;;;;;;;77.70;23.90;;;;;;;1.13;100.00;100568.73;105713;1267;70882;-70
2022/11/21 01:26:31;;;;;;;74.10;23.70;;;;;;;1.10;100.00;100557.22;105687;1276;61042;-70
2022/11/21 01:29:00;;;;;;;79.00;24.50;;;;;;;1.09;100.00;100555.70;105665;1270;59085;-71
2022/11/21 01:31:29;;;;;;;76.90;23.60;;;;;;;1.06;100.00;100555.59;105730;1276;71050;-70
2022/11/21 01:33:59;;;;;;;74.10;23.30;;;;;;;1.02;100.00;100546.64;105749;1264;71958;-70
2022/11/21 01:36:33;;;;;;;69.50;21.90;;;;;;;1.01;100.00;100542.05;105554;1270;69481;-69
2022/11/21 01:39:05;;;;;;;71.00;22.70;;;;;;;0.96;100.00;100535.89;105649;1266;73578;-70
2022/11/21 01:41:39;;;;;;;60.90;22.20;;;;;;;0.98;100.00;100528.98;105732;1265;61046;-70
2022/11/21 01:44:25;;;;;;;76.20;23.00;;;;;;;0.99;100.00;100521.89;105761;1271;60958;-68
2022/11/21 01:46:54;;;;;;;76.20;24.90;;;;;;;0.97;100.00;100521.11;105732;1260;73852;-68
2022/11/21 01:49:31;;;;;;;63.70;22.50;;;;;;;1.02;100.00;100520.94;105702;1269;71703;-70
2022/11/21 01:52:24;;;;;;;81.60;25.40;;;;;;;1.03;100.00;100516.77;105667;1272;70369;-69
2022/11/21 01:55:09;;;;;;;77.60;26.20;;;;;;;0.99;100.00;100515.23;105666;1267;63594;-70
2022/11/21 01:57:43;;;;;;;79.60;25.10;;;;;;;0.95;100.00;100510.91;105616;1262;59157;-70
2022/11/21 02:00:22;;;;;;;104.20;29.20;;;;;;;0.94;100.00;100505.46;105614;1265;60938;-71
2022/11/21 02:03:08;;;;;;;86.10;25.50;;;;;;;0.99;100.00;100497.56;105610;1269;73866;-70
2022/11/21 02:05:39;;;;;;;74.10;23.90;;;;;;;0.95;100.00;100492.20;105600;1265;61600;-69
2022/11/21 02:08:19;;;;;;;83.10;26.60;;;;;;;0.98;100.00;100491.77;105572;1265;68574;-70
2022/11/21 02:11:27;;;;;;;81.80;26.00;;;;;;;1.03;100.00;100495.19;105554;1269;71042;-70
2022/11/21 02:13:58;;;;;;;78.80;24.30;;;;;;;1.03;100.00;100489.86;105477;1270;61598;-69
2022/11/21 02:16:28;;;;;;;90.60;26.50;;;;;;;1.03;100.00;100485.75;105485;1261;61563;-68
2022/11/21 02:18:57;;;;;;;81.00;25.10;;;;;;;1.13;100.00;100479.23;105475;1275;73596;-69
2022/11/21 02:21:53;;;;;;;90.10;26.30;;;;;;;1.15;100.00;100472.45;105553;1266;71533;-69
2022/11/21 02:24:41;;;;;;;91.00;27.00;;;;;;;1.21;100.00;100464.67;105527;1267;60291;-69
2022/11/21 02:27:10;;;;;;;74.30;24.30;;;;;;;1.25;100.00;100467.93;105462;1278;63241;-69
2022/11/21 02:29:39;;;;;;;78.50;23.50;;;;;;;1.17;100.00;100459.50;105437;1266;59900;-70
2022/11/21 02:32:19;;;;;;;76.80;23.90;;;;;;;1.22;100.00;100452.45;105385;1271;61094;-68
2022/11/21 02:34:48;;;;;;;78.90;24.10;;;;;;;1.30;100.00;100453.16;105460;1277;73529;-69
2022/11/21 02:37:17;;;;;;;72.70;22.60;;;;;;;1.38;100.00;100457.84;105543;1268;70545;-68
2022/11/21 02:39:46;;;;;;;77.80;24.80;;;;;;;1.50;100.00;100457.73;105517;1267;59809;-65
2022/11/21 02:42:40;;;;;;;69.90;24.50;;;;;;;1.44;100.00;100457.95;105513;1275;71822;-68
2022/11/21 02:45:19;;;;;;;60.10;21.50;;;;;;;1.38;100.00;100457.34;105661;1275;59074;-68
2022/11/21 02:47:52;;;;;;;59.60;21.80;;;;;;;1.42;100.00;100450.83;105621;1266;61029;-70
2022/11/21 02:50:34;;;;;;;62.80;21.90;;;;;;;1.50;100.00;100441.08;105583;1265;73821;-69
2022/11/21 02:53:05;;;;;;;60.80;21.20;;;;;;;1.49;100.00;100438.04;105537;1266;70698;-69
2022/11/21 02:55:34;;;;;;;63.30;21.20;;;;;;;1.50;100.00;100440.75;105485;1267;59939;-68
2022/11/21 02:58:05;;;;;;;54.30;19.90;;;;;;;1.55;100.00;100438.66;105567;1276;72891;-67
2022/11/21 03:00:36;;;;;;;65.00;20.10;;;;;;;1.42;100.00;100451.20;105510;1275;59970;-69
2022/11/21 03:03:05;;;;;;;59.20;20.50;;;;;;;1.39;100.00;100454.91;105610;1266;59069;-69
2022/11/21 03:05:35;;;;;;;46.30;18.90;;;;;;;1.36;100.00;100456.73;105537;1265;63903;-69
2022/11/21 03:08:04;;;;;;;43.00;17.50;;;;;;;1.35;100.00;100455.90;105496;1270;72075;-68
2022/11/21 03:10:33;;;;;;;44.00;17.60;;;;;;;1.35;100.00;100451.09;105491;1276;59672;-70
2022/11/21 03:13:02;;;;;;;54.00;19.40;;;;;;;1.36;100.00;100451.57;105514;1274;64027;-72
2022/11/21 03:15:34;;;;;;;54.70;18.90;;;;;;;1.37;100.00;100434.20;105762;1273;61451;-69
2022/11/21 03:18:03;;;;;;;49.40;18.30;;;;;;;1.42;100.00;100413.42;105385;1267;524364;-70
2022/11/21 03:20:34;;;;;;;45.90;18.30;;;;;;;1.33;100.00;100408.98;105644;1267;63765;-70
2022/11/21 03:23:03;;;;;;;56.20;19.30;;;;;;;1.43;100.00;100416.14;105489;1264;71286;-71
2022/11/21 03:25:31;;;;;;;59.40;19.20;;;;;;;1.38;100.00;100435.39;105517;1270;69873;-72
2022/11/21 03:28:00;;;;;;;62.00;20.80;;;;;;;1.50;100.00;100455.14;105481;1270;72644;-71
2022/11/21 03:30:29;;;;;;;62.30;20.80;;;;;;;1.40;100.00;100462.41;105590;1269;61166;-71
2022/11/21 03:32:58;;;;;;;63.10;20.80;;;;;;;1.39;100.00;100451.61;105441;1274;60072;-70
2022/11/21 03:35:27;;;;;;;58.30;19.80;;;;;;;1.40;100.00;100428.42;105528;1266;63283;-70
2022/11/21 03:37:56;;;;;;;54.00;20.60;;;;;;;1.35;100.00;100415.25;105528;1262;70547;-70
2022/11/21 03:40:25;;;;;;;58.60;21.10;;;;;;;1.25;100.00;100411.35;105512;1262;68204;-68
2022/11/21 03:42:54;;;;;;;60.40;21.20;;;;;;;1.34;100.00;100416.31;105481;1269;73120;-69
2022/11/21 03:45:22;;;;;;;54.00;20.50;;;;;;;1.34;100.00;100420.41;105519;1275;62419;-68
2022/11/21 03:47:51;;;;;;;61.20;21.50;;;;;;;1.31;100.00;100418.98;105515;1270;59102;-69
2022/11/21 03:50:21;;;;;;;67.90;22.60;;;;;;;1.34;100.00;100416.48;105511;1274;62424;-69
2022/11/21 03:52:50;;;;;;;62.50;21.40;;;;;;;1.38;100.00;100414.27;105513;1261;72039;-70
2022/11/21 03:55:18;;;;;;;70.50;24.30;;;;;;;1.46;100.00;100414.30;105498;1271;70454;-70
2022/11/21 03:57:48;;;;;;;66.10;22.20;;;;;;;1.51;100.00;100418.02;105450;1260;64589;-69
2022/11/21 04:00:17;;;;;;;62.20;21.60;;;;;;;1.50;100.00;100419.27;105466;1271;61207;-68
2022/11/21 04:02:46;;;;;;;69.50;20.40;;;;;;;1.45;100.00;100427.70;105450;1270;60228;-68
2022/11/21 04:05:15;;;;;;;58.60;19.30;;;;;;;1.43;100.00;100426.08;105459;1278;72913;-68
2022/11/21 04:07:45;;;;;;;56.90;21.30;;;;;;;1.40;100.00;100426.20;105511;1270;70260;-69
2022/11/21 04:10:14;;;;;;;64.80;21.50;;;;;;;1.37;100.00;100422.38;105539;1270;68863;-69
2022/11/21 04:12:43;;;;;;;59.80;22.00;;;;;;;1.35;100.00;100408.91;105502;1262;63608;-68
2022/11/21 04:15:12;;;;;;;60.90;20.50;;;;;;;1.28;100.00;100397.83;105435;1266;59693;-70
2022/11/21 04:17:41;;;;;;;58.20;20.20;;;;;;;1.25;100.00;100391.27;105526;1267;60750;-69
2022/11/21 04:20:11;;;;;;;49.00;18.20;;;;;;;1.25;100.00;100380.97;105459;1270;64810;-69
2022/11/21 04:22:39;;;;;;;63.50;21.30;;;;;;;1.20;100.00;100370.35;105513;1267;72092;-72
2022/11/21 04:25:09;;;;;;;47.10;19.70;;;;;;;1.15;100.00;100365.25;105514;1267;69376;-69
2022/11/21 04:27:37;;;;;;;49.60;19.30;;;;;;;1.13;100.00;100358.98;105600;1260;74853;-69
2022/11/21 04:30:07;;;;;;;49.90;19.00;;;;;;;1.11;100.00;100358.03;105790;1271;61419;-70
2022/11/21 04:32:36;;;;;;;53.00;19.00;;;;;;;1.08;100.00;100357.61;105692;1275;60020;-71
2022/11/21 04:35:07;;;;;;;50.30;19.50;;;;;;;0.98;100.00;100361.26;105783;1273;71031;-72
2022/11/21 04:37:38;;;;;;;58.70;20.30;;;;;;;0.98;100.00;100356.29;105768;1270;72092;-69
2022/11/21 04:40:08;;;;;;;55.80;21.10;;;;;;;0.95;100.00;100346.44;105786;1270;59534;-70
2022/11/21 04:42:40;;;;;;;54.00;19.90;;;;;;;0.96;100.00;100332.17;105628;1267;71811;-69
2022/11/21 04:45:11;;;;;;;56.70;22.90;;;;;;;0.98;100.00;100331.76;105497;1266;59617;-68
2022/11/21 04:47:44;;;;;;;53.80;22.90;;;;;;;1.03;100.00;100326.24;105456;1266;60176;-70
2022/11/21 04:50:15;;;;;;;54.40;23.60;;;;;;;1.02;100.00;100318.21;105573;1267;74419;-68
2022/11/21 04:52:55;;;;;;;52.80;20.20;;;;;;;1.01;100.00;100317.23;105540;1270;72315;-69
2022/11/21 04:55:29;;;;;;;35.90;16.60;;;;;;;1.03;100.00;100317.33;105459;1262;59476;-69
2022/11/21 04:57:58;;;;;;;30.80;14.30;;;;;;;0.89;100.00;100317.70;105483;1267;73771;-69
2022/11/21 05:00:27;;;;;;;32.80;14.00;;;;;;;0.97;100.00;100311.23;105376;1274;61949;-71
2022/11/21 05:03:05;;;;;;;29.70;16.30;;;;;;;0.87;100.00;100309.73;105521;1265;60642;-71
2022/11/21 05:05:34;;;;;;;23.90;11.00;;;;;;;0.83;100.00;100308.88;105478;1275;73430;-70
2022/11/21 05:08:03;;;;;;;24.20;11.70;;;;;;;0.74;100.00;100303.55;105516;1269;72336;-71
2022/11/21 05:13:19;;;;;;;28.60;12.90;;;;;;;0.84;100.00;100298.89;105571;1267;68381;-72
2022/11/21 05:13:21;;;;;;;25.50;13.50;;;;;;;0.87;100.00;100296.54;105588;1267;62655;-72
2022/11/21 05:15:56;;;;;;;22.30;12.50;;;;;;;0.74;100.00;100302.16;105556;1269;60738;-71
2022/11/21 05:18:25;;;;;;;26.00;12.10;;;;;;;0.80;100.00;100298.52;105445;1267;57983;-71
2022/11/21 05:20:54;;;;;;;24.60;12.20;;;;;;;0.79;100.00;100288.62;105580;1265;72598;-71
2022/11/21 05:23:22;;;;;;;24.80;12.40;;;;;;;0.77;100.00;100285.43;105671;1270;72434;-69
2022/11/21 05:25:51;;;;;;;26.60;12.40;;;;;;;0.74;100.00;100271.31;105541;1267;68298;-69
2022/11/21 05:28:20;;;;;;;24.80;12.20;;;;;;;0.68;100.00;100269.15;105468;1266;62690;-70
2022/11/21 05:30:49;;;;;;;21.50;10.60;;;;;;;0.69;100.00;100263.45;105586;1271;59946;-72
2022/11/21 05:33:19;;;;;;;18.80;10.50;;;;;;;0.67;100.00;100260.98;105603;1270;59107;-71
2022/11/21 05:35:47;;;;;;;21.00;10.60;;;;;;;0.60;100.00;100259.88;105557;1265;73444;-70
2022/11/21 05:38:16;;;;;;;20.30;9.80;;;;;;;0.57;100.00;100263.21;105608;1267;72128;-71
2022/11/21 05:40:45;;;;;;;20.90;11.20;;;;;;;0.55;100.00;100262.43;105525;1267;70996;-74
2022/11/21 05:46:02;;;;;;;20.50;9.80;;;;;;;0.58;100.00;100251.04;105525;1266;60680;-72
2022/11/21 05:48:31;;;;;;;16.30;9.80;;;;;;;0.57;100.00;100245.27;105545;1266;61336;-74
2022/11/21 05:50:59;;;;;;;15.70;9.00;;;;;;;0.51;100.00;100234.34;105553;1267;72616;-70
2022/11/21 05:53:28;;;;;;;15.70;9.20;;;;;;;0.51;100.00;100225.23;105644;1260;71880;-71
2022/11/21 05:56:07;;;;;;;18.60;9.20;;;;;;;0.44;100.00;100226.89;105597;1263;69601;-72
2022/11/21 05:58:36;;;;;;;20.60;9.70;;;;;;;0.49;100.00;100231.67;105585;1266;73777;-72
2022/11/21 06:01:06;;;;;;;22.90;10.70;;;;;;;0.53;100.00;100232.20;105601;1267;62404;-71
2022/11/21 06:03:38;;;;;;;20.00;10.10;;;;;;;0.58;100.00;100228.24;105510;1257;60132;-70
2022/11/21 06:06:10;;;;;;;17.80;9.00;;;;;;;0.65;100.00;100221.95;105488;1275;72976;-72
2022/11/21 06:08:45;;;;;;;19.20;9.40;;;;;;;0.59;100.00;100211.59;105496;1266;71793;-71
2022/11/21 06:11:15;;;;;;;19.30;9.20;;;;;;;0.61;100.00;100209.78;105367;1267;69486;-70
2022/11/21 06:13:44;;;;;;;17.20;8.90;;;;;;;0.66;100.00;100210.45;105467;1274;71744;-72
2022/11/21 06:16:17;;;;;;;16.30;8.90;;;;;;;0.64;100.00;100210.55;105441;1266;59692;-71
2022/11/21 06:18:51;;;;;;;21.90;10.80;;;;;;;0.59;100.00;100217.07;105454;1274;60128;-70
2022/11/21 06:21:28;;;;;;;21.70;10.00;;;;;;;0.63;100.00;100221.34;105427;1271;72910;-71
2022/11/21 06:23:58;;;;;;;18.20;8.60;;;;;;;0.67;100.00;100212.29;105387;1269;71382;-69
2022/11/21 06:26:27;;;;;;;23.10;10.10;;;;;;;0.65;100.00;100209.44;105454;1266;70215;-70
2022/11/21 06:28:56;;;;;;;23.90;10.40;;;;;;;0.61;100.00;100219.39;105570;1260;73712;-70
2022/11/21 06:31:26;;;;;;;18.50;10.20;;;;;;;0.62;100.00;100220.20;105520;1264;62021;-70
2022/11/21 06:33:58;;;;;;;27.80;12.20;;;;;;;0.69;100.00;100212.39;105487;1273;60925;-71
2022/11/21 06:36:27;;;;;;;20.50;9.90;;;;;;;0.60;100.00;100207.41;105476;1262;74627;-69
2022/11/21 06:38:56;;;;;;;21.10;9.70;;;;;;;0.64;100.00;100204.50;105522;1260;71329;-71
2022/11/21 06:41:29;;;;;;;22.50;9.50;;;;;;;0.66;100.00;100204.77;105540;1266;71219;-70
2022/11/21 06:44:02;;;;;;;25.20;10.10;;;;;;;0.62;100.00;100193.45;105366;1267;74949;-72
2022/11/21 06:46:30;;;;;;;21.90;8.60;;;;;;;0.61;100.00;100190.43;105468;1267;62401;-69
2022/11/21 06:48:59;;;;;;;20.50;9.10;;;;;;;0.64;100.00;100185.01;105466;1266;60677;-70
2022/11/21 06:51:28;;;;;;;26.70;12.40;;;;;;;0.63;100.00;100185.37;105434;1274;71821;-69
2022/11/21 06:53:58;;;;;;;25.70;9.70;;;;;;;0.59;100.00;100195.97;105837;1264;69775;-70
2022/11/21 06:56:29;;;;;;;21.10;11.50;;;;;;;0.65;100.00;100195.76;105669;1270;69662;-70
2022/11/21 06:58:58;;;;;;;32.20;13.90;;;;;;;0.62;100.00;100196.71;105615;1275;63677;-71
2022/11/21 07:01:28;;;;;;;29.10;11.10;;;;;;;0.65;100.00;100183.23;105456;1263;62264;-70
2022/11/21 07:03:57;;;;;;;30.80;16.30;;;;;;;0.69;100.00;100171.25;105408;1264;59339;-70
2022/11/21 07:06:26;;;;;;;34.80;18.90;;;;;;;0.72;100.00;100170.75;105522;1270;70825;-69
2022/11/21 07:08:55;;;;;;;27.20;13.10;;;;;;;0.77;100.00;100169.20;105559;1261;70030;-71
2022/11/21 07:11:44;;;;;;;34.50;15.90;;;;;;;0.85;100.00;100172.15;105469;1270;60004;-71
2022/11/21 07:14:13;;;;;;;24.50;11.60;;;;;;;0.84;100.00;100162.09;105606;1267;73243;-72
2022/11/21 07:16:41;;;;;;;32.60;13.40;;;;;;;0.79;100.00;100148.38;105525;1266;63177;-71
2022/11/21 07:19:11;;;;;;;23.30;11.90;;;;;;;0.75;100.00;100141.52;105414;1277;59692;-70
2022/11/21 07:21:41;;;;;;;25.80;11.90;;;;;;;0.71;100.00;100138.25;105521;1270;72903;-70
2022/11/21 07:24:11;;;;;;;22.60;11.50;;;;;;;0.70;100.00;100130.05;105537;1261;70068;-69
2022/11/21 07:26:40;;;;;;;25.40;11.20;;;;;;;0.69;100.00;100127.71;105492;1261;69658;-71
2022/11/21 07:29:08;;;;;;;66.50;34.40;;;;;;;0.73;100.00;100124.64;105443;1274;73798;-71
2022/11/21 07:31:37;;;;;;;39.70;21.30;;;;;;;0.75;100.00;100109.98;105360;1272;60629;-70
2022/11/21 07:34:06;;;;;;;36.40;14.50;;;;;;;0.73;100.00;100098.56;105355;1274;59010;-71
2022/11/21 07:36:35;;;;;;;24.40;12.10;;;;;;;0.77;100.00;100108.00;105435;1275;71195;-70
2022/11/21 07:39:05;;;;;;;22.40;10.80;;;;;;;0.75;100.00;100122.84;105410;1265;69681;-70
2022/11/21 07:41:34;;;;;;;21.50;10.90;;;;;;;0.77;100.00;100139.04;105348;1267;68581;-71
2022/11/21 07:44:03;;;;;;;18.50;10.90;;;;;;;0.73;100.00;100157.34;105397;1267;72372;-70
2022/11/21 07:46:32;;;;;;;20.60;13.30;;;;;;;0.73;100.00;100175.16;105409;1266;61522;-70
2022/11/21 07:49:01;;;;;;;23.00;11.00;;;;;;;0.67;100.00;100184.88;105364;1266;59868;-70
2022/11/21 07:51:32;;;;;;;20.60;11.40;;;;;;;0.78;100.00;100183.56;105444;1265;71622;-70
2022/11/21 07:54:00;;;;;;;23.00;11.40;;;;;;;0.83;100.00;100159.88;105496;1266;72127;-69
2022/11/21 07:56:29;;;;;;;21.00;10.90;;;;;;;0.87;100.00;100134.52;105485;1273;70327;-71
2022/11/21 07:58:58;;;;;;;24.70;14.00;;;;;;;0.79;100.00;100121.65;105539;1264;73888;-71
2022/11/21 08:01:27;;;;;;;18.70;10.20;;;;;;;0.77;100.00;100118.80;105490;1266;62125;-70
2022/11/21 08:03:56;;;;;;;16.10;9.50;;;;;;;0.84;100.00;100113.06;105472;1275;60425;-69
2022/11/21 08:06:25;;;;;;;18.20;9.00;;;;;;;0.74;100.00;100106.42;105481;1275;71865;-72
2022/11/21 08:08:54;;;;;;;18.30;9.40;;;;;;;0.72;100.00;100109.42;105557;1265;69531;-72
2022/11/21 08:11:23;;;;;;;18.70;9.30;;;;;;;0.77;100.00;100099.10;105504;1270;68103;-72
2022/11/21 08:13:52;;;;;;;13.70;8.60;;;;;;;0.82;100.00;100091.03;105520;1267;73223;-72
2022/11/21 08:16:23;;;;;;;19.50;8.70;;;;;;;0.75;100.00;100089.24;105460;1266;61429;-70
2022/11/21 08:18:52;;;;;;;18.20;9.90;;;;;;;0.82;100.00;100093.08;105503;1270;60813;-73
2022/11/21 08:21:20;;;;;;;15.00;9.00;;;;;;;0.82;100.00;100091.04;105517;1267;73460;-71
2022/11/21 08:23:49;;;;;;;19.40;10.80;;;;;;;0.79;100.00;100090.97;105539;1264;72055;-70
2022/11/21 08:26:18;;;;;;;16.20;8.60;;;;;;;0.70;100.00;100085.85;105519;1266;70531;-71
2022/11/21 08:28:47;;;;;;;20.80;9.80;;;;;;;0.75;100.00;100083.75;105518;1266;73707;-70
2022/11/21 08:31:16;;;;;;;21.60;13.10;;;;;;;0.74;100.00;100076.94;105470;1270;62413;-70
2022/11/21 08:33:45;;;;;;;24.00;11.20;;;;;;;0.74;100.00;100075.03;105609;1271;59838;-70
2022/11/21 08:36:14;;;;;;;23.30;12.10;;;;;;;0.86;100.00;100075.61;105597;1275;70885;-69
2022/11/21 08:38:43;;;;;;;19.10;10.30;;;;;;;0.78;100.00;100083.83;105588;1260;71138;-71
2022/11/21 08:43:59;;;;;;;19.20;11.40;;;;;;;0.85;100.00;100087.95;105570;1260;71722;-71
2022/11/21 08:46:29;;;;;;;17.30;9.00;;;;;;;0.74;100.00;100078.64;105653;1270;60719;-71
2022/11/21 08:48:58;;;;;;;20.90;10.00;;;;;;;0.84;100.00;100068.45;106103;1266;60186;-71
2022/11/21 08:51:27;;;;;;;22.10;9.50;;;;;;;0.88;100.00;100065.39;105985;1266;72394;-71
2022/11/21 08:53:56;;;;;;;25.90;15.60;;;;;;;0.81;100.00;100071.86;105614;1262;69799;-71
2022/11/21 08:56:25;;;;;;;21.30;11.50;;;;;;;0.79;100.00;100073.81;105623;1267;69596;-71
2022/11/21 08:58:55;;;;;;;36.10;21.50;;;;;;;0.75;100.00;100084.80;105501;1261;71968;-70
2022/11/21 09:01:24;;;;;;;24.90;12.70;;;;;;;0.80;100.00;100090.05;105605;1266;61654;-69
2022/11/21 09:03:52;;;;;;;19.50;9.90;;;;;;;0.84;100.00;100084.40;105658;1267;61950;-69
2022/11/21 09:06:21;;;;;;;30.00;15.20;;;;;;;0.87;100.00;100071.78;105568;1267;73484;-70
2022/11/21 09:08:50;;;;;;;29.40;16.60;;;;;;;0.86;100.00;100063.60;105556;1267;69479;-70
2022/11/21 09:11:19;;;;;;;41.80;20.40;;;;;;;0.85;100.00;100072.36;105610;1273;68517;-70
2022/11/21 09:18:01;;;;;;;25.20;12.60;;;;;;;0.87;100.00;100070.39;105635;1270;71465;-68
2022/11/21 09:19:29;;;;;;;29.10;15.40;;;;;;;0.84;100.00;100067.62;105503;1260;60975;-70
2022/11/21 09:21:59;;;;;;;32.60;16.90;;;;;;;0.80;100.00;100065.20;105510;1258;73339;-67
2022/11/21 09:24:28;;;;;;;19.30;10.70;;;;;;;0.84;100.00;100062.64;105766;1275;72813;-68
2022/11/21 09:26:58;;;;;;;25.40;13.00;;;;;;;0.82;100.00;100059.78;105784;1267;70323;-68
2022/11/21 09:29:27;;;;;;;49.10;28.70;;;;;;;0.77;100.00;100052.31;105524;1270;73613;-69
2022/11/21 09:31:57;;;;;;;36.20;18.20;;;;;;;0.80;100.00;100039.98;105502;1266;61898;-69
2022/11/21 09:34:25;;;;;;;30.50;19.70;;;;;;;0.79;100.00;100020.84;105456;1270;60568;-69
2022/11/21 09:36:55;;;;;;;33.40;18.50;;;;;;;0.73;100.00;100014.60;105536;1275;74537;-67
2022/11/21 09:39:24;;;;;;;33.10;18.80;;;;;;;0.85;100.00;100009.95;105512;1270;70630;-68
2022/11/21 09:42:27;;;;;;;50.20;25.40;;;;;;;0.83;100.00;100003.17;105528;1267;70374;-70
2022/11/21 09:45:23;;;;;;;24.30;13.20;;;;;;;0.99;100.00;99991.51;105507;1261;73011;-69
2022/11/21 09:47:52;;;;;;;24.10;13.40;;;;;;;1.05;100.00;99984.39;105502;1260;61827;-68
2022/11/21 09:50:50;;;;;;;23.20;12.40;;;;;;;1.17;100.00;99972.17;105525;1269;59822;-68
2022/11/21 09:53:48;;;;;;;30.60;17.50;;;;;;;1.31;100.00;99965.87;105485;1274;73554;-69
2022/11/21 09:56:22;;;;;;;25.00;14.70;;;;;;;1.34;100.00;99968.14;105482;1264;71534;-69
2022/11/21 09:59:18;;;;;;;32.00;18.60;;;;;;;1.43;100.00;99953.30;105394;1272;68454;-69
2022/11/21 10:01:47;;;;;;;37.10;20.50;;;;;;;1.36;100.00;99946.60;105459;1262;73781;-67
2022/11/21 10:04:16;;;;;;;30.20;16.50;;;;;;;1.16;100.00;99945.84;105468;1265;61426;-69
2022/11/21 10:07:16;;;;;;;27.50;12.50;;;;;;;1.17;100.00;99945.10;105410;1275;61152;-67
2022/11/21 10:10:00;;;;;;;36.60;17.10;;;;;;;1.23;100.00;99949.96;105556;1266;72658;-68
2022/11/21 10:13:02;;;;;;;20.70;12.80;;;;;;;1.37;100.00;99948.63;105532;1270;71531;-71
2022/11/21 10:16:11;;;;;;;19.10;10.60;;;;;;;1.34;100.00;99942.05;105544;1270;68213;-69
2022/11/21 10:19:26;;;;;;;14.70;7.30;;;;;;;1.60;100.00;99941.02;105551;1269;72941;-68
2022/11/21 10:22:24;;;;;;;19.80;10.60;;;;;;;1.59;100.00;99938.49;105590;1260;58771;-69
2022/11/21 10:25:16;;;;;;;20.20;10.70;;;;;;;1.55;100.00;99937.98;105580;1270;60796;-69
2022/11/21 10:28:10;;;;;;;17.80;9.80;;;;;;;1.56;100.00;99943.61;105477;1270;73960;-69
2022/11/21 10:30:43;;;;;;;21.40;11.00;;;;;;;1.45;100.00;99940.54;105551;1266;71675;-70
2022/11/21 10:33:25;;;;;;;;;;;;;;;1.50;100.00;99934.79;105554;1260;70295;-69
2022/11/21 10:36:00;;;;;;;27.30;12.30;;;;;;;1.52;100.00;99933.86;105598;1266;73612;-69
2022/11/21 10:38:33;;;;;;;25.50;11.40;;;;;;;1.53;100.00;99930.38;105587;1270;59156;-70
2022/11/21 10:41:36;;;;;;;21.40;12.00;;;;;;;1.48;100.00;99931.65;105599;1275;60187;-71
2022/11/21 10:47:26;;;;;;;18.50;11.00;;;;;;;1.37;100.00;99935.94;105412;1275;72686;-70
2022/11/21 10:50:39;;;;;;;16.40;8.90;;;;;;;1.41;100.00;99940.54;105330;1270;59840;-71
2022/11/21 10:56:18;;;;;;;19.20;10.00;;;;;;;1.48;100.00;99936.11;105312;1265;59658;-71
2022/11/21 10:58:56;;;;;;;21.20;11.90;;;;;;;1.42;100.00;99934.48;105371;1260;58901;-72
2022/11/21 11:01:33;;;;;;;20.50;11.00;;;;;;;1.44;100.00;99936.64;105306;1275;73447;-70
2022/11/21 11:04:08;;;;;;;20.40;10.90;;;;;;;1.42;100.00;99936.73;105369;1270;62495;-71
2022/11/21 11:06:58;;;;;;;18.40;9.00;;;;;;;1.44;100.00;99934.57;105321;1275;59388;-72
2022/11/21 11:09:33;;;;;;;22.40;11.00;;;;;;;1.47;100.00;99927.05;105301;1263;73670;-71
2022/11/21 11:15:24;;;;;;;27.10;11.90;;;;;;;1.44;100.00;99919.67;105333;1266;59157;-71
2022/11/21 11:18:01;;;;;;;25.30;11.90;;;;;;;1.44;100.00;99910.91;105318;1265;70679;-70
2022/11/21 11:20:40;;;;;;;36.10;12.40;;;;;;;1.34;100.00;99909.83;105373;1270;71456;-71
2022/11/21 11:23:25;;;;;;;28.40;11.80;;;;;;;1.27;100.00;99912.02;105370;1274;68004;-71
2022/11/21 11:25:59;;;;;;;19.20;9.70;;;;;;;1.29;100.00;99918.98;105313;1262;62731;-71
2022/11/21 11:28:35;;;;;;;16.30;9.20;;;;;;;1.34;100.00;99917.20;105223;1260;62020;-70
2022/11/21 11:31:05;;;;;;;23.90;11.20;;;;;;;1.27;100.00;99913.75;105443;1269;61148;-71
2022/11/21 11:33:46;;;;;;;22.10;11.20;;;;;;;1.34;100.00;99910.16;105408;1264;73994;-71
2022/11/21 11:36:38;;;;;;;19.80;10.40;;;;;;;1.35;100.00;99909.42;105337;1263;69693;-70
2022/11/21 11:39:24;;;;;;;21.70;10.90;;;;;;;1.38;100.00;99904.33;105348;1260;71378;-71
2022/11/21 11:48:09;;;;;;;21.90;12.50;;;;;;;1.33;100.00;99913.13;105494;1265;60629;-70
2022/11/21 11:51:08;;;;;;;20.30;9.30;;;;;;;1.34;100.00;99911.35;105535;1270;62799;-71
2022/11/21 11:53:49;;;;;;;15.20;8.20;;;;;;;1.31;100.00;99909.95;105461;1264;70560;-72
2022/11/21 11:56:35;;;;;;;16.80;8.50;;;;;;;1.26;100.00;99906.77;105438;1266;70374;-72